Time;durP1;ratioP1;P1;durP2;ratioP2;P2;SDS_P1;SDS_P2;PMS_P1;PMS_P2;Temp;Humidity;BMP_temperature;BMP_pressure;BME280_temperature;BME280_humidity;BME280_pressure;Samples;Min_cycle;Max_cycle;Signal;HPM_P1;HPM_P2
2021/07/23 00:01:54;;;;;;;9.13;7.77;;;19.50;99.90;;;;;;5052715;28;21065;-87
2021/07/23 00:04:21;;;;;;;8.33;7.00;;;19.40;99.90;;;;;;5048714;28;20479;-84
2021/07/23 00:06:49;;;;;;;10.63;7.70;;;19.40;99.90;;;;;;5056618;28;20486;-86
2021/07/23 00:09:16;;;;;;;8.70;7.00;;;19.40;99.90;;;;;;5048475;28;20472;-87
2021/07/23 00:11:44;;;;;;;9.50;8.00;;;19.30;99.90;;;;;;5051041;28;20460;-86
2021/07/23 00:14:11;;;;;;;8.90;7.70;;;19.30;99.90;;;;;;5051846;28;20499;-84
2021/07/23 00:16:38;;;;;;;9.53;7.50;;;19.30;99.90;;;;;;5053126;28;21012;-84
2021/07/23 00:19:05;;;;;;;8.50;7.33;;;19.30;99.90;;;;;;5055406;28;20498;-85
2021/07/23 00:21:32;;;;;;;11.17;6.97;;;19.30;99.90;;;;;;5063901;28;20465;-86
2021/07/23 00:23:59;;;;;;;9.23;8.17;;;19.30;99.90;;;;;;5061525;28;20541;-85
2021/07/23 00:26:26;;;;;;;9.30;7.53;;;19.20;99.90;;;;;;5060953;28;20483;-84
2021/07/23 00:28:54;;;;;;;7.67;6.90;;;19.20;99.90;;;;;;5056782;28;20504;-86
2021/07/23 00:31:21;;;;;;;10.40;7.53;;;19.20;99.90;;;;;;5058320;28;20533;-85
2021/07/23 00:33:48;;;;;;;12.57;8.40;;;19.20;99.90;;;;;;5062653;28;20472;-87
2021/07/23 00:36:15;;;;;;;7.80;7.00;;;19.20;99.90;;;;;;5051806;28;20811;-86
2021/07/23 00:38:43;;;;;;;8.70;7.80;;;19.20;99.90;;;;;;5055365;28;20478;-86
2021/07/23 00:41:10;;;;;;;10.40;8.60;;;19.20;99.90;;;;;;5059129;28;20458;-84
2021/07/23 00:43:37;;;;;;;11.40;8.10;;;19.10;99.90;;;;;;5063658;28;20469;-85
2021/07/23 00:46:05;;;;;;;12.20;8.10;;;19.10;99.90;;;;;;5063073;28;20474;-84
2021/07/23 00:48:33;;;;;;;9.60;8.53;;;19.10;99.90;;;;;;5062082;28;20465;-84
2021/07/23 00:51:00;;;;;;;9.17;7.50;;;19.10;99.90;;;;;;5060868;28;20457;-84
2021/07/23 00:53:27;;;;;;;9.20;7.30;;;19.10;99.90;;;;;;5055806;28;20469;-84
2021/07/23 00:55:56;;;;;;;11.90;9.43;;;19.00;99.90;;;;;;5054882;28;20454;-84
2021/07/23 00:58:24;;;;;;;14.90;8.83;;;19.00;99.90;;;;;;5056191;28;20542;-86
2021/07/23 01:00:53;;;;;;;10.30;7.70;;;19.00;99.90;;;;;;5059902;28;20564;-85
2021/07/23 01:03:22;;;;;;;13.30;8.20;;;19.00;99.90;;;;;;5059634;28;20913;-85
2021/07/23 01:05:50;;;;;;;9.43;8.53;;;19.00;99.90;;;;;;5058505;28;20448;-86
2021/07/23 01:08:17;;;;;;;10.00;8.20;;;18.90;99.90;;;;;;5051626;28;20497;-84
2021/07/23 01:10:44;;;;;;;10.97;8.40;;;18.90;99.90;;;;;;5061704;28;20461;-85
2021/07/23 01:13:12;;;;;;;12.10;8.57;;;18.90;99.90;;;;;;5058159;28;20469;-85
2021/07/23 01:15:39;;;;;;;9.73;8.77;;;18.90;99.90;;;;;;5060463;28;20450;-85
2021/07/23 01:18:06;;;;;;;11.07;7.70;;;18.90;99.90;;;;;;5053630;28;20543;-86
2021/07/23 01:20:34;;;;;;;10.93;8.73;;;18.90;99.90;;;;;;5059288;28;20478;-86
2021/07/23 01:23:02;;;;;;;10.37;8.40;;;18.80;99.90;;;;;;5051974;28;20537;-86
2021/07/23 01:25:31;;;;;;;9.83;8.70;;;18.80;99.90;;;;;;5053681;28;20469;-85
2021/07/23 01:27:58;;;;;;;10.57;8.37;;;18.80;99.90;;;;;;5054023;28;20481;-85
2021/07/23 01:30:26;;;;;;;8.93;8.03;;;18.80;99.90;;;;;;5055936;28;20494;-84
2021/07/23 01:32:54;;;;;;;13.60;10.23;;;18.70;99.90;;;;;;5055632;28;20456;-84
2021/07/23 01:35:22;;;;;;;14.50;8.77;;;18.70;99.90;;;;;;5056272;28;20468;-85
2021/07/23 01:37:49;;;;;;;11.13;7.80;;;18.70;99.90;;;;;;5057611;28;20490;-84
2021/07/23 01:40:17;;;;;;;10.57;8.17;;;18.70;99.90;;;;;;5061767;28;20478;-86
2021/07/23 01:42:46;;;;;;;11.83;8.33;;;18.70;99.90;;;;;;5056260;28;20479;-85
2021/07/23 01:45:16;;;;;;;11.90;9.10;;;18.70;99.90;;;;;;5056473;28;20461;-84
2021/07/23 01:47:42;;;;;;;10.97;8.23;;;18.70;99.90;;;;;;5058072;28;21021;-86
2021/07/23 01:50:10;;;;;;;8.47;7.57;;;18.70;99.90;;;;;;5054168;28;20461;-87
2021/07/23 01:52:37;;;;;;;10.33;7.93;;;18.70;99.90;;;;;;5060527;28;20498;-86
2021/07/23 01:55:05;;;;;;;9.83;8.87;;;18.60;99.90;;;;;;5055698;28;20479;-85
2021/07/23 01:57:34;;;;;;;9.00;8.13;;;18.60;99.90;;;;;;5056756;28;20459;-86
2021/07/23 02:00:05;;;;;;;8.83;7.93;;;18.60;99.90;;;;;;5054160;28;20538;-86
2021/07/23 02:02:32;;;;;;;9.10;8.20;;;18.60;99.90;;;;;;5055810;28;20468;-84
2021/07/23 02:04:59;;;;;;;8.77;7.40;;;18.60;99.90;;;;;;5055131;28;20465;-84
2021/07/23 02:07:27;;;;;;;10.37;8.43;;;18.60;99.90;;;;;;5060403;28;20659;-84
2021/07/23 02:09:54;;;;;;;8.93;7.27;;;18.60;99.90;;;;;;5056246;28;20456;-86
2021/07/23 02:12:20;;;;;;;10.67;7.57;;;18.50;99.90;;;;;;5058855;28;20454;-86
2021/07/23 02:14:47;;;;;;;9.90;8.40;;;18.50;99.90;;;;;;5063283;28;20474;-85
2021/07/23 02:17:16;;;;;;;9.40;8.20;;;18.50;99.90;;;;;;5066694;28;20540;-85
2021/07/23 02:19:42;;;;;;;11.03;8.03;;;18.40;99.90;;;;;;5053879;28;20450;-87
2021/07/23 02:22:09;;;;;;;9.03;6.97;;;18.40;99.90;;;;;;5050282;28;20821;-84
2021/07/23 02:24:36;;;;;;;7.47;6.77;;;18.30;99.90;;;;;;5047953;28;20507;-85
2021/07/23 02:27:03;;;;;;;9.73;7.50;;;18.30;99.90;;;;;;5052720;28;20490;-85
2021/07/23 02:29:30;;;;;;;8.00;7.20;;;18.30;99.90;;;;;;5056609;28;20553;-85
2021/07/23 02:31:57;;;;;;;10.23;7.40;;;18.20;99.90;;;;;;5055324;28;20466;-86
2021/07/23 02:34:25;;;;;;;8.00;6.97;;;18.20;99.90;;;;;;5053424;28;20470;-86
2021/07/23 02:36:52;;;;;;;11.83;8.27;;;18.10;99.90;;;;;;5052779;28;20473;-83
2021/07/23 02:39:19;;;;;;;10.53;8.47;;;18.10;99.90;;;;;;5054996;28;20481;-86
2021/07/23 02:41:46;;;;;;;12.20;8.23;;;18.10;99.90;;;;;;5060366;28;20475;-84
2021/07/23 02:44:13;;;;;;;11.53;8.47;;;18.10;99.90;;;;;;5053430;28;20891;-86
2021/07/23 02:46:41;;;;;;;13.63;7.10;;;18.00;99.90;;;;;;5061233;28;20551;-85
2021/07/23 02:49:08;;;;;;;9.50;7.30;;;18.00;99.90;;;;;;5053715;28;20836;-86
2021/07/23 02:51:36;;;;;;;8.87;7.60;;;17.90;99.90;;;;;;5055240;28;20825;-85
2021/07/23 02:54:03;;;;;;;8.53;7.43;;;17.90;99.90;;;;;;5052945;28;20492;-86
2021/07/23 02:56:30;;;;;;;11.43;7.77;;;17.80;99.90;;;;;;5053659;28;20541;-85
2021/07/23 02:58:56;;;;;;;7.50;6.80;;;17.80;99.90;;;;;;5053545;28;20533;-84
2021/07/23 03:01:23;;;;;;;8.00;7.00;;;17.80;99.90;;;;;;5054067;28;21203;-85
2021/07/23 03:03:50;;;;;;;7.30;6.40;;;17.70;99.90;;;;;;5052243;28;20459;-87
2021/07/23 03:06:17;;;;;;;8.07;6.50;;;17.60;99.90;;;;;;5054665;28;20717;-84
2021/07/23 03:08:46;;;;;;;10.03;6.73;;;17.60;99.90;;;;;;5054628;28;20528;-84
2021/07/23 03:11:15;;;;;;;8.13;7.03;;;17.60;99.90;;;;;;5057323;28;20463;-85
2021/07/23 03:13:41;;;;;;;8.63;7.03;;;17.50;99.90;;;;;;5058791;28;20452;-86
2021/07/23 03:16:11;;;;;;;7.60;6.80;;;17.40;99.90;;;;;;5061759;28;20469;-85
2021/07/23 03:18:38;;;;;;;9.30;7.67;;;17.40;99.90;;;;;;5052123;28;20473;-85
2021/07/23 03:21:05;;;;;;;8.33;7.50;;;17.40;99.90;;;;;;5054347;28;20462;-84
2021/07/23 03:23:32;;;;;;;8.37;7.60;;;17.30;99.90;;;;;;5048410;28;20513;-85
2021/07/23 03:26:00;;;;;;;9.83;8.30;;;17.30;99.90;;;;;;5058768;28;20485;-85
2021/07/23 03:28:27;;;;;;;9.20;8.30;;;17.30;99.90;;;;;;5057675;28;20501;-85
2021/07/23 03:30:54;;;;;;;8.80;7.87;;;17.30;99.90;;;;;;5051556;28;20504;-84
2021/07/23 03:33:21;;;;;;;9.07;7.07;;;17.20;99.90;;;;;;5054426;28;20454;-85
2021/07/23 03:35:48;;;;;;;11.13;7.80;;;17.20;99.90;;;;;;5052792;28;20463;-84
2021/07/23 03:38:15;;;;;;;9.17;7.40;;;17.20;99.90;;;;;;5054726;28;20485;-85
2021/07/23 03:40:41;;;;;;;13.03;8.57;;;17.10;99.90;;;;;;5053415;28;20540;-85
2021/07/23 03:43:10;;;;;;;8.33;7.33;;;17.10;99.90;;;;;;5052961;28;20461;-87
2021/07/23 03:45:37;;;;;;;8.03;6.83;;;17.10;99.90;;;;;;5049846;28;20469;-84
2021/07/23 03:48:04;;;;;;;8.73;7.93;;;17.10;99.90;;;;;;5048668;28;20811;-84
2021/07/23 03:50:31;;;;;;;7.80;7.00;;;17.10;99.90;;;;;;5058513;28;20471;-85
2021/07/23 03:52:58;;;;;;;13.30;8.37;;;17.00;99.90;;;;;;5056619;28;20472;-85
2021/07/23 03:55:25;;;;;;;13.50;7.70;;;17.00;99.90;;;;;;5056217;28;20975;-87
2021/07/23 03:57:52;;;;;;;11.20;8.23;;;17.00;99.90;;;;;;5058931;28;20465;-84
2021/07/23 04:00:20;;;;;;;8.53;7.23;;;17.00;99.90;;;;;;5055315;28;20957;-86
2021/07/23 04:02:49;;;;;;;8.03;7.20;;;17.00;99.90;;;;;;5054694;28;20498;-84
2021/07/23 04:05:15;;;;;;;7.77;7.03;;;17.00;99.90;;;;;;5053220;28;21119;-84
2021/07/23 04:07:43;;;;;;;10.10;8.27;;;16.90;99.90;;;;;;5056381;28;20472;-87
2021/07/23 04:10:11;;;;;;;9.50;8.33;;;16.90;99.90;;;;;;5054872;28;20462;-84
2021/07/23 04:12:38;;;;;;;7.67;6.57;;;16.90;99.90;;;;;;5053939;28;20562;-84
2021/07/23 04:15:09;;;;;;;7.50;6.80;;;16.80;99.90;;;;;;5060890;28;20659;-85
2021/07/23 04:17:38;;;;;;;8.33;7.20;;;16.80;99.90;;;;;;5052913;28;20541;-84
2021/07/23 04:20:05;;;;;;;10.50;7.50;;;16.80;99.90;;;;;;5055780;28;20467;-86
2021/07/23 04:22:33;;;;;;;12.10;7.83;;;16.80;99.90;;;;;;5054876;28;20464;-85
2021/07/23 04:25:00;;;;;;;9.90;7.30;;;16.70;99.90;;;;;;5054832;28;20518;-86
2021/07/23 04:27:27;;;;;;;7.87;7.07;;;16.70;99.90;;;;;;5054197;28;20471;-84
2021/07/23 04:29:54;;;;;;;8.93;7.57;;;16.70;99.90;;;;;;5065593;28;20463;-84
2021/07/23 04:32:21;;;;;;;9.03;6.53;;;16.70;99.90;;;;;;5053669;28;20453;-85
2021/07/23 04:34:50;;;;;;;9.33;7.97;;;16.60;99.90;;;;;;5053400;28;20470;-84
2021/07/23 04:37:17;;;;;;;9.13;8.23;;;16.60;99.90;;;;;;5054498;28;20835;-85
2021/07/23 04:39:44;;;;;;;11.30;7.63;;;16.60;99.90;;;;;;5055975;28;20469;-85
2021/07/23 04:42:11;;;;;;;9.90;7.83;;;16.70;99.90;;;;;;5049284;28;20456;-84
2021/07/23 04:44:38;;;;;;;9.80;7.97;;;16.70;99.90;;;;;;5055484;28;20548;-83
2021/07/23 04:47:05;;;;;;;10.13;7.70;;;16.70;99.90;;;;;;5055101;28;20562;-84
2021/07/23 04:49:31;;;;;;;10.83;9.60;;;16.70;99.90;;;;;;5055485;28;20487;-86
2021/07/23 04:52:00;;;;;;;10.80;7.67;;;16.70;99.90;;;;;;5049296;28;20961;-87
2021/07/23 04:54:27;;;;;;;11.47;9.00;;;16.70;99.90;;;;;;5053348;28;20491;-85
2021/07/23 04:56:54;;;;;;;11.73;8.73;;;16.70;99.90;;;;;;5061569;28;20473;-83
2021/07/23 04:59:21;;;;;;;10.77;9.17;;;16.80;99.90;;;;;;5052852;28;20813;-87
2021/07/23 05:01:48;;;;;;;8.97;7.90;;;16.80;99.90;;;;;;5052015;28;20948;-84
2021/07/23 05:04:15;;;;;;;10.87;9.50;;;16.80;99.90;;;;;;5057935;28;20468;-84
2021/07/23 05:06:42;;;;;;;12.10;8.10;;;16.90;99.90;;;;;;5039801;28;21062;-85
2021/07/23 05:09:10;;;;;;;11.60;9.03;;;16.90;99.90;;;;;;5058120;28;20486;-85
2021/07/23 05:11:37;;;;;;;13.07;9.17;;;17.00;99.90;;;;;;5059703;28;20478;-83
2021/07/23 05:14:07;;;;;;;11.57;8.80;;;17.00;99.90;;;;;;5059657;28;20459;-84
2021/07/23 05:16:35;;;;;;;11.00;8.83;;;17.00;99.90;;;;;;5058778;28;20465;-85
2021/07/23 05:19:04;;;;;;;10.63;8.73;;;17.10;99.90;;;;;;5055533;28;20464;-86
2021/07/23 05:21:31;;;;;;;11.23;9.47;;;17.10;99.90;;;;;;5057387;28;20471;-85
2021/07/23 05:24:03;;;;;;;9.83;8.87;;;17.10;99.90;;;;;;5059378;28;20456;-86
2021/07/23 05:26:35;;;;;;;13.33;8.90;;;17.10;99.90;;;;;;5057535;28;20495;-85
2021/07/23 05:29:02;;;;;;;16.13;9.33;;;17.20;99.90;;;;;;5071407;28;20582;-85
2021/07/23 05:31:29;;;;;;;14.20;9.90;;;17.20;99.90;;;;;;5055697;28;20465;-86
2021/07/23 05:33:57;;;;;;;14.30;9.60;;;17.30;99.90;;;;;;5055498;28;20452;-87
2021/07/23 05:36:25;;;;;;;15.17;10.40;;;17.30;99.90;;;;;;5052544;28;20465;-86
2021/07/23 05:38:52;;;;;;;13.73;9.10;;;17.30;99.90;;;;;;5053048;28;20538;-86
2021/07/23 05:41:19;;;;;;;12.33;9.90;;;17.40;99.90;;;;;;5056122;28;20630;-85
2021/07/23 05:43:47;;;;;;;13.03;10.50;;;17.40;99.90;;;;;;5052225;28;20485;-87
2021/07/23 05:46:15;;;;;;;10.57;9.57;;;17.50;99.90;;;;;;5056915;28;20468;-86
2021/07/23 05:48:42;;;;;;;12.70;9.13;;;17.50;99.90;;;;;;5050207;28;20492;-86
2021/07/23 05:51:10;;;;;;;11.13;9.60;;;17.60;99.90;;;;;;5054694;28;20468;-85
2021/07/23 05:53:37;;;;;;;15.90;10.53;;;17.60;99.90;;;;;;5049296;28;20882;-86
2021/07/23 05:56:04;;;;;;;13.53;10.70;;;17.70;99.90;;;;;;5050864;28;20494;-86
2021/07/23 05:58:32;;;;;;;15.77;10.80;;;17.70;99.90;;;;;;5051256;28;20559;-85
2021/07/23 06:01:05;;;;;;;11.27;9.30;;;17.70;99.90;;;;;;5049876;28;20477;-85
2021/07/23 06:03:31;;;;;;;12.17;9.60;;;17.80;99.90;;;;;;5056611;28;20962;-85
2021/07/23 06:06:00;;;;;;;16.50;10.03;;;17.80;99.90;;;;;;5050038;28;20475;-83
2021/07/23 06:08:27;;;;;;;14.23;9.20;;;17.90;99.90;;;;;;5051117;28;20480;-85
2021/07/23 06:10:54;;;;;;;10.93;8.23;;;18.00;99.90;;;;;;5050754;28;20779;-84
2021/07/23 06:13:20;;;;;;;12.43;9.50;;;18.10;99.90;;;;;;5051924;28;20532;-86
2021/07/23 06:15:47;;;;;;;10.47;9.30;;;18.10;99.90;;;;;;5051814;28;20688;-84
2021/07/23 06:18:16;;;;;;;12.90;9.70;;;18.20;99.90;;;;;;5057270;28;20464;-85
2021/07/23 06:20:43;;;;;;;13.80;10.40;;;18.30;99.90;;;;;;5054438;28;20818;-83
2021/07/23 06:23:09;;;;;;;11.57;10.37;;;18.30;99.90;;;;;;5051010;28;20466;-84
2021/07/23 06:25:36;;;;;;;11.60;10.13;;;18.40;99.90;;;;;;5052989;28;20475;-85
2021/07/23 06:28:05;;;;;;;14.37;9.87;;;18.50;99.90;;;;;;5055360;28;20467;-84
2021/07/23 06:30:32;;;;;;;10.97;9.13;;;18.60;99.90;;;;;;5050687;28;20816;-85
2021/07/23 06:32:59;;;;;;;11.77;9.37;;;18.70;99.90;;;;;;5045247;28;20462;-84
2021/07/23 06:35:29;;;;;;;9.90;9.00;;;18.70;99.90;;;;;;5053122;28;20462;-84
2021/07/23 06:37:57;;;;;;;11.23;9.67;;;18.80;99.90;;;;;;5049936;28;20540;-84
2021/07/23 06:40:24;;;;;;;14.13;9.60;;;18.90;99.90;;;;;;5054288;28;20835;-84
2021/07/23 06:42:51;;;;;;;13.37;8.50;;;18.90;99.90;;;;;;5051072;28;20570;-84
2021/07/23 06:45:18;;;;;;;12.33;9.53;;;19.00;99.90;;;;;;5054383;28;20462;-85
2021/07/23 06:47:45;;;;;;;10.90;9.60;;;19.00;99.90;;;;;;5058879;28;20470;-85
2021/07/23 06:50:12;;;;;;;10.87;8.60;;;19.10;99.90;;;;;;5045784;28;20486;-85
2021/07/23 06:52:41;;;;;;;9.83;8.23;;;19.10;99.90;;;;;;5052538;28;20451;-84
2021/07/23 06:55:09;;;;;;;12.13;9.00;;;19.20;99.90;;;;;;5051506;28;20472;-83
2021/07/23 06:57:36;;;;;;;10.60;8.30;;;19.30;99.90;;;;;;5048604;28;20577;-85
2021/07/23 07:00:04;;;;;;;13.70;9.30;;;19.30;99.90;;;;;;5047302;28;20457;-86
2021/07/23 07:02:30;;;;;;;11.40;8.77;;;19.40;99.90;;;;;;5052093;28;20473;-84
2021/07/23 07:04:58;;;;;;;11.93;8.80;;;19.50;99.90;;;;;;5043428;28;20459;-86
2021/07/23 07:07:25;;;;;;;9.70;7.87;;;19.50;99.90;;;;;;5052562;28;20471;-85
2021/07/23 07:09:53;;;;;;;10.70;9.60;;;19.60;99.90;;;;;;5052643;28;20489;-85
2021/07/23 07:12:20;;;;;;;8.27;7.40;;;19.70;99.90;;;;;;5047744;28;20474;-88
2021/07/23 07:14:47;;;;;;;11.67;8.47;;;19.80;99.90;;;;;;5051936;28;20455;-85
2021/07/23 07:17:13;;;;;;;12.27;8.40;;;19.90;99.90;;;;;;5051498;28;20547;-86
2021/07/23 07:19:40;;;;;;;15.40;8.23;;;19.90;99.90;;;;;;5050457;28;20452;-85
2021/07/23 07:22:07;;;;;;;9.27;8.37;;;20.00;99.90;;;;;;5057063;28;20459;-84
2021/07/23 07:24:34;;;;;;;9.13;8.20;;;20.00;99.90;;;;;;5052041;28;20524;-87
2021/07/23 07:27:03;;;;;;;8.93;7.67;;;20.00;99.90;;;;;;5045200;28;20456;-86
2021/07/23 07:29:30;;;;;;;8.83;7.73;;;20.10;99.90;;;;;;5042682;28;20493;-85
2021/07/23 07:31:56;;;;;;;9.63;8.63;;;20.20;99.90;;;;;;5045215;28;20454;-85
2021/07/23 07:34:23;;;;;;;10.03;8.20;;;20.20;99.90;;;;;;5046087;28;20605;-85
2021/07/23 07:36:50;;;;;;;16.77;9.77;;;20.30;99.90;;;;;;5056082;28;21326;-85
2021/07/23 07:39:17;;;;;;;12.77;7.83;;;20.30;99.90;;;;;;5052319;28;21037;-85
2021/07/23 07:41:44;;;;;;;8.63;7.73;;;20.40;99.90;;;;;;5048703;28;20546;-86
2021/07/23 07:44:13;;;;;;;8.37;7.47;;;20.40;99.90;;;;;;5051966;28;20474;-84
2021/07/23 07:46:40;;;;;;;8.73;7.80;;;20.50;99.90;;;;;;5052777;28;20460;-86
2021/07/23 07:49:07;;;;;;;8.70;7.80;;;20.50;99.90;;;;;;5055933;28;20489;-87
2021/07/23 07:51:34;;;;;;;10.50;7.70;;;20.60;99.90;;;;;;5055122;28;20455;-85
2021/07/23 07:54:01;;;;;;;12.27;7.73;;;20.70;99.90;;;;;;5047697;28;21020;-86
2021/07/23 07:56:28;;;;;;;8.93;7.20;;;20.70;99.90;;;;;;5052938;28;20458;-86
2021/07/23 07:58:55;;;;;;;10.93;8.20;;;20.80;99.90;;;;;;5051184;28;20480;-84
2021/07/23 08:01:23;;;;;;;12.33;8.77;;;20.90;99.90;;;;;;5054033;28;20946;-84
2021/07/23 08:03:50;;;;;;;8.53;7.43;;;20.90;99.90;;;;;;5053101;28;20459;-84
2021/07/23 08:06:21;;;;;;;9.07;7.77;;;21.00;99.90;;;;;;5050231;28;20536;-84
2021/07/23 08:08:50;;;;;;;11.40;6.60;;;21.10;99.90;;;;;;5051030;28;20526;-87
2021/07/23 08:11:17;;;;;;;7.53;6.73;;;21.20;99.90;;;;;;5053794;28;20800;-84
2021/07/23 08:13:44;;;;;;;9.30;7.23;;;21.20;99.90;;;;;;5049506;28;20455;-86
2021/07/23 08:16:12;;;;;;;14.83;7.70;;;21.30;99.90;;;;;;5048731;28;20827;-84
2021/07/23 08:18:41;;;;;;;7.77;6.97;;;21.40;99.90;;;;;;5048773;28;20469;-85
2021/07/23 08:21:08;;;;;;;7.53;6.73;;;21.40;99.90;;;;;;5049573;28;20490;-85
2021/07/23 08:23:36;;;;;;;13.60;7.50;;;21.50;99.90;;;;;;5048556;28;20783;-85
2021/07/23 08:26:04;;;;;;;9.50;7.00;;;21.60;99.90;;;;;;5048193;28;20459;-84
2021/07/23 08:28:32;;;;;;;11.50;8.40;;;21.70;99.90;;;;;;5045367;28;20942;-85
2021/07/23 08:30:59;;;;;;;12.70;8.33;;;21.70;99.90;;;;;;5054051;28;20463;-85
2021/07/23 08:33:28;;;;;;;9.07;7.07;;;21.80;99.90;;;;;;5052603;28;20460;-86
2021/07/23 08:35:56;;;;;;;16.93;8.33;;;21.80;99.90;;;;;;5054806;28;20535;-84
2021/07/23 08:38:23;;;;;;;13.23;7.33;;;21.90;99.90;;;;;;5052282;28;20487;-86
2021/07/23 08:40:50;;;;;;;9.67;8.40;;;22.00;99.90;;;;;;5052981;28;20549;-86
2021/07/23 08:43:17;;;;;;;9.63;6.73;;;22.10;99.90;;;;;;5055040;28;20518;-84
2021/07/23 08:45:44;;;;;;;12.40;7.87;;;22.10;99.90;;;;;;5055164;28;20905;-86
2021/07/23 08:48:11;;;;;;;7.70;6.60;;;22.20;99.90;;;;;;5053101;28;20463;-84
2021/07/23 08:50:38;;;;;;;10.33;7.63;;;22.30;99.90;;;;;;5059880;28;20850;-83
2021/07/23 08:53:10;;;;;;;7.87;6.53;;;22.40;99.90;;;;;;5057177;28;20459;-85
2021/07/23 08:55:38;;;;;;;10.40;7.67;;;22.50;99.90;;;;;;5052082;28;21136;-86
2021/07/23 08:58:08;;;;;;;8.10;7.20;;;22.60;99.90;;;;;;5050452;28;20547;-83
2021/07/23 09:00:36;;;;;;;10.10;7.20;;;22.60;99.90;;;;;;5046945;28;20460;-85
2021/07/23 09:03:05;;;;;;;7.40;6.40;;;22.70;99.90;;;;;;5052334;28;20557;-86
2021/07/23 09:05:34;;;;;;;8.80;6.90;;;22.80;99.90;;;;;;5044069;28;20462;-84
2021/07/23 09:08:03;;;;;;;9.40;7.23;;;22.90;99.90;;;;;;5052777;28;20519;-86
2021/07/23 09:10:32;;;;;;;8.33;6.80;;;22.90;99.90;;;;;;5053573;28;20482;-86
2021/07/23 09:13:02;;;;;;;9.30;6.97;;;22.90;99.90;;;;;;5052650;28;20543;-85
2021/07/23 09:15:32;;;;;;;8.40;6.10;;;23.00;99.90;;;;;;5053949;28;20455;-86
2021/07/23 09:17:59;;;;;;;6.60;5.90;;;23.10;99.90;;;;;;5058118;28;21002;-86
2021/07/23 09:20:28;;;;;;;9.30;7.27;;;23.10;99.90;;;;;;5054612;28;20871;-86
2021/07/23 09:22:57;;;;;;;8.50;7.40;;;23.20;99.90;;;;;;5057218;28;20569;-84
2021/07/23 09:25:43;;;;;;;12.50;7.40;;;23.30;99.90;;;;;;5052189;28;21010;-85
2021/07/23 09:28:29;;;;;;;7.83;7.10;;;23.30;99.90;;;;;;5054406;28;20458;-84
2021/07/23 09:30:58;;;;;;;8.70;6.40;;;23.40;99.90;;;;;;5052451;28;20489;-84
2021/07/23 09:33:30;;;;;;;8.63;6.90;;;23.50;99.90;;;;;;5053457;28;20459;-85
2021/07/23 09:35:59;;;;;;;10.23;7.07;;;23.50;99.90;;;;;;5055689;28;20980;-84
2021/07/23 09:38:33;;;;;;;8.90;7.53;;;23.60;99.90;;;;;;5055325;28;20479;-85
2021/07/23 09:41:02;;;;;;;12.90;8.03;;;23.70;99.90;;;;;;5052872;28;20549;-85
2021/07/23 09:43:30;;;;;;;17.10;7.53;;;23.70;99.90;;;;;;5053760;28;20484;-84
2021/07/23 09:46:24;;;;;;;10.60;7.73;;;23.70;99.90;;;;;;5048790;28;20555;-85
2021/07/23 09:48:51;;;;;;;9.70;8.30;;;23.70;99.90;;;;;;5049306;28;20535;-86
2021/07/23 09:51:20;;;;;;;10.30;8.97;;;23.70;99.90;;;;;;5052655;28;20490;-85
2021/07/23 09:53:47;;;;;;;14.53;9.57;;;23.80;99.90;;;;;;5049271;28;20509;-85
2021/07/23 09:56:17;;;;;;;11.13;7.90;;;23.90;99.90;;;;;;5059483;28;20470;-84
2021/07/23 09:58:45;;;;;;;9.50;7.00;;;23.90;99.90;;;;;;5056976;28;20467;-83
2021/07/23 10:01:16;;;;;;;9.03;7.57;;;24.00;99.90;;;;;;5051219;28;20465;-85
2021/07/23 10:03:45;;;;;;;12.63;7.67;;;24.10;99.90;;;;;;5053283;28;20470;-84
2021/07/23 10:06:17;;;;;;;8.70;7.80;;;24.10;99.90;;;;;;5053837;28;20561;-85
2021/07/23 10:08:48;;;;;;;12.03;8.10;;;24.10;99.90;;;;;;5056518;28;20469;-85
2021/07/23 10:11:21;;;;;;;10.97;7.83;;;24.20;99.90;;;;;;5057667;28;20482;-85
2021/07/23 10:13:52;;;;;;;8.20;7.43;;;24.30;99.90;;;;;;5061392;28;20466;-83
2021/07/23 10:16:20;;;;;;;8.70;7.43;;;24.30;99.90;;;;;;5053542;28;20925;-84
2021/07/23 10:18:47;;;;;;;10.40;6.93;;;24.30;99.50;;;;;;5053747;28;20459;-85
2021/07/23 10:21:14;;;;;;;10.50;7.87;;;24.30;98.90;;;;;;5052020;28;20465;-87
2021/07/23 10:23:44;;;;;;;9.43;6.33;;;24.20;98.20;;;;;;5043771;28;20870;-85
2021/07/23 10:26:12;;;;;;;9.43;6.87;;;24.30;98.80;;;;;;5047652;28;20474;-84
2021/07/23 10:28:58;;;;;;;8.40;6.30;;;24.40;98.70;;;;;;5053725;28;20548;-85
2021/07/23 10:31:42;;;;;;;8.27;7.23;;;24.40;98.90;;;;;;5052383;28;20537;-86
2021/07/23 10:34:10;;;;;;;11.20;7.37;;;24.50;99.00;;;;;;5052369;28;20970;-84
2021/07/23 10:36:39;;;;;;;10.00;6.50;;;24.60;98.60;;;;;;5053314;28;20455;-86
2021/07/23 10:39:10;;;;;;;10.80;7.23;;;24.60;98.90;;;;;;5046034;28;21024;-84
2021/07/23 10:41:38;;;;;;;9.43;7.30;;;24.70;98.50;;;;;;5054645;28;20460;-86
2021/07/23 10:44:12;;;;;;;7.73;6.80;;;24.80;98.80;;;;;;5053371;28;20456;-85
2021/07/23 10:46:55;;;;;;;9.70;7.83;;;24.80;99.00;;;;;;5051827;28;20456;-83
2021/07/23 10:49:47;;;;;;;8.93;7.00;;;24.90;98.80;;;;;;5053360;28;20851;-85
2021/07/23 10:52:27;;;;;;;8.73;6.90;;;24.90;98.30;;;;;;5057416;28;20450;-83
2021/07/23 10:55:12;;;;;;;8.40;6.77;;;25.00;98.40;;;;;;5048950;28;20566;-84
2021/07/23 10:57:39;;;;;;;6.63;5.90;;;25.00;99.00;;;;;;5052279;28;20482;-84
2021/07/23 11:00:09;;;;;;;17.50;6.73;;;25.10;99.40;;;;;;5050422;28;20456;-85
2021/07/23 11:02:46;;;;;;;10.80;6.80;;;25.20;99.40;;;;;;5051703;28;20465;-83
2021/07/23 11:05:18;;;;;;;7.87;6.77;;;25.10;97.30;;;;;;5049882;28;20465;-83
2021/07/23 11:07:46;;;;;;;9.23;6.60;;;25.10;97.60;;;;;;5045260;28;20466;-84
2021/07/23 11:10:20;;;;;;;6.77;6.10;;;25.10;98.20;;;;;;5048135;28;20530;-84
2021/07/23 11:12:47;;;;;;;9.97;7.77;;;25.20;98.50;;;;;;5039699;28;20470;-84
2021/07/23 11:15:16;;;;;;;7.20;6.50;;;25.20;97.10;;;;;;5050965;28;20451;-84
2021/07/23 11:18:04;;;;;;;7.60;6.60;;;25.20;96.70;;;;;;5055533;28;20459;-85
2021/07/23 11:20:37;;;;;;;10.27;7.77;;;25.20;97.20;;;;;;5044248;28;20517;-84
2021/07/23 11:23:05;;;;;;;9.67;7.90;;;25.10;96.60;;;;;;5049021;28;20452;-84
2021/07/23 11:25:32;;;;;;;10.60;7.00;;;25.20;96.70;;;;;;5060369;28;20554;-85
2021/07/23 11:28:04;;;;;;;10.63;7.40;;;25.20;96.60;;;;;;5050449;28;20467;-84
2021/07/23 11:30:37;;;;;;;9.77;7.60;;;25.30;96.90;;;;;;5047604;28;20922;-84
2021/07/23 11:33:06;;;;;;;8.77;7.53;;;25.30;96.50;;;;;;5043131;28;20551;-85
2021/07/23 11:35:39;;;;;;;10.23;7.33;;;25.30;96.50;;;;;;5042206;28;20537;-85
2021/07/23 11:38:11;;;;;;;7.70;6.90;;;25.40;96.80;;;;;;5045025;28;20480;-84
2021/07/23 11:40:38;;;;;;;12.97;8.67;;;25.40;97.20;;;;;;5050641;28;20465;-85
2021/07/23 11:43:05;;;;;;;13.00;7.40;;;25.40;97.00;;;;;;5051492;28;20469;-84
2021/07/23 11:45:34;;;;;;;12.60;7.00;;;25.40;96.90;;;;;;5047669;28;20466;-86
2021/07/23 11:48:10;;;;;;;8.43;7.30;;;25.50;96.80;;;;;;5049489;28;20474;-84
2021/07/23 11:50:37;;;;;;;7.90;6.73;;;25.40;96.10;;;;;;5047365;28;21275;-83
2021/07/23 11:53:07;;;;;;;10.73;7.73;;;25.50;96.30;;;;;;5044087;28;20459;-85
2021/07/23 11:55:41;;;;;;;9.60;6.70;;;25.50;95.70;;;;;;5043127;28;20488;-85
2021/07/23 11:58:09;;;;;;;10.47;7.73;;;25.50;96.10;;;;;;5051198;28;20530;-85
2021/07/23 12:00:36;;;;;;;9.40;7.63;;;25.50;96.00;;;;;;5050911;28;20473;-85
2021/07/23 12:03:18;;;;;;;9.07;7.07;;;25.50;95.90;;;;;;5052806;28;20504;-85
2021/07/23 12:05:45;;;;;;;9.13;6.57;;;25.60;95.40;;;;;;5048501;28;20494;-84
2021/07/23 12:08:12;;;;;;;10.30;7.47;;;25.60;96.10;;;;;;5049209;28;20995;-86
2021/07/23 12:10:40;;;;;;;8.27;6.90;;;25.60;95.80;;;;;;5052447;28;20498;-87
2021/07/23 12:13:09;;;;;;;7.30;6.60;;;25.60;94.80;;;;;;5046752;28;20554;-84
2021/07/23 12:15:44;;;;;;;8.73;6.60;;;25.60;94.40;;;;;;5055028;28;21252;-86
2021/07/23 12:18:18;;;;;;;8.70;6.87;;;25.60;95.30;;;;;;5051615;28;20459;-85
2021/07/23 12:20:45;;;;;;;8.93;6.30;;;25.60;95.40;;;;;;5046928;28;20468;-85
2021/07/23 12:23:12;;;;;;;8.87;7.17;;;25.60;94.60;;;;;;5059432;28;20781;-85
2021/07/23 12:25:43;;;;;;;10.57;6.60;;;25.60;94.20;;;;;;5053030;28;20470;-86
2021/07/23 12:28:12;;;;;;;8.90;6.37;;;25.60;94.10;;;;;;5054592;28;20464;-84
2021/07/23 12:30:40;;;;;;;7.07;5.50;;;25.70;94.20;;;;;;5049205;28;20524;-85
2021/07/23 12:33:15;;;;;;;7.40;6.70;;;25.70;94.50;;;;;;5057546;28;20462;-85
2021/07/23 12:35:45;;;;;;;9.60;6.83;;;25.80;94.10;;;;;;5055585;28;20497;-84
2021/07/23 12:38:13;;;;;;;6.83;5.80;;;25.80;93.90;;;;;;5047419;28;20554;-85
2021/07/23 12:40:44;;;;;;;7.80;6.10;;;25.80;93.40;;;;;;5053452;28;20458;-85
2021/07/23 12:43:12;;;;;;;8.87;5.87;;;25.80;93.70;;;;;;5049124;28;20455;-83
2021/07/23 12:45:40;;;;;;;7.40;5.83;;;25.80;92.90;;;;;;5055656;28;20469;-84
2021/07/23 12:48:11;;;;;;;6.47;5.73;;;25.80;93.00;;;;;;5051830;28;20466;-84